Time;durP1;ratioP1;P1;durP2;ratioP2;P2;SDS_P1;SDS_P2;PMS_P1;PMS_P2;Temp;Humidity;BMP_temperature;BMP_pressure;BME280_temperature;BME280_humidity;BME280_pressure;Samples;Min_cycle;Max_cycle;Signal;HPM_P1;HPM_P2
2022/02/06 00:02:29;;;;;;;0.68;0.65;;;4.10;99.90;;;;;;5013765;28;20592;-73
2022/02/06 00:04:54;;;;;;;4.18;1.65;;;4.10;99.90;;;;;;5012417;28;20529;-72
2022/02/06 00:07:21;;;;;;;4.10;1.67;;;4.10;99.90;;;;;;5012558;28;20210;-74
2022/02/06 00:09:47;;;;;;;1.60;1.25;;;4.00;99.90;;;;;;5013172;28;20193;-72
2022/02/06 00:12:14;;;;;;;3.35;1.25;;;4.00;99.90;;;;;;5013737;28;20208;-73
2022/02/06 00:14:39;;;;;;;1.00;0.57;;;4.00;99.90;;;;;;5013674;28;20250;-72
2022/02/06 00:17:07;;;;;;;1.90;1.80;;;4.00;99.90;;;;;;5013522;28;20292;-72
2022/02/06 00:19:34;;;;;;;2.47;1.00;;;4.00;99.90;;;;;;5013212;28;20411;-73
2022/02/06 00:22:02;;;;;;;1.50;1.40;;;4.20;99.90;;;;;;5013422;28;20332;-73
2022/02/06 00:24:40;;;;;;;5.00;1.95;;;4.10;99.90;;;;;;5013595;28;20586;-73
2022/02/06 00:27:11;;;;;;;1.67;1.30;;;4.10;99.90;;;;;;5012139;28;20185;-72
2022/02/06 00:29:50;;;;;;;2.40;1.38;;;4.20;99.90;;;;;;5015995;28;20191;-72
2022/02/06 00:32:30;;;;;;;1.25;1.13;;;4.20;99.90;;;;;;5017400;28;20224;-74
2022/02/06 00:40:12;;;;;;;1.65;1.55;;;4.30;99.90;;;;;;5017783;28;20561;-73
2022/02/06 00:42:38;;;;;;;1.65;0.73;;;4.30;99.90;;;;;;5017460;28;20537;-71
2022/02/06 00:45:04;;;;;;;2.03;1.07;;;4.40;99.90;;;;;;5017274;28;20225;-72
2022/02/06 00:47:30;;;;;;;0.90;0.90;;;4.40;99.90;;;;;;5015542;28;20187;-72
2022/02/06 00:49:57;;;;;;;1.77;0.73;;;4.40;99.90;;;;;;5016841;28;20190;-72
2022/02/06 00:52:31;;;;;;;0.70;0.70;;;4.50;99.90;;;;;;5017147;28;20241;-73
2022/02/06 00:54:58;;;;;;;0.98;0.90;;;4.50;99.90;;;;;;5017250;28;20170;-71
2022/02/06 00:57:26;;;;;;;1.48;1.27;;;4.50;99.90;;;;;;5016832;28;20163;-73
2022/02/06 00:59:52;;;;;;;3.63;1.00;;;4.50;99.90;;;;;;5016460;28;20195;-72
2022/02/06 01:02:18;;;;;;;1.00;1.00;;;4.50;99.90;;;;;;5016597;28;20597;-72
2022/02/06 01:04:43;;;;;;;0.90;0.90;;;4.60;99.90;;;;;;5016864;28;20172;-71
2022/02/06 01:07:09;;;;;;;3.90;1.10;;;4.50;99.90;;;;;;5016679;28;20680;-72
2022/02/06 01:09:35;;;;;;;2.10;1.50;;;4.50;99.90;;;;;;5016162;28;20282;-72
2022/02/06 01:12:01;;;;;;;2.33;1.03;;;4.50;99.90;;;;;;5016636;28;20167;-72
2022/02/06 01:15:03;;;;;;;7.97;1.13;;;4.50;99.90;;;;;;5015276;28;20187;-73
2022/02/06 01:17:23;;;;;;;1.23;0.98;;;4.40;99.90;;;;;;5016455;28;20190;-72
2022/02/06 01:20:34;;;;;;;1.55;0.98;;;4.40;99.90;;;;;;5014818;28;20195;-72
2022/02/06 01:22:46;;;;;;;0.57;0.57;;;4.40;99.90;;;;;;5010643;28;20569;-72
2022/02/06 01:25:17;;;;;;;0.75;0.75;;;4.40;99.90;;;;;;5015051;28;20166;-73
2022/02/06 01:30:54;;;;;;;1.13;0.90;;;4.40;99.90;;;;;;5020047;28;20737;-73
2022/02/06 01:33:28;;;;;;;1.38;1.27;;;4.50;99.90;;;;;;5016296;28;20186;-73
2022/02/06 01:36:06;;;;;;;1.45;0.93;;;4.50;99.90;;;;;;5016390;28;20525;-72
2022/02/06 01:43:31;;;;;;;0.60;0.60;;;4.60;99.90;;;;;;5016117;28;20195;-72
2022/02/06 02:07:35;;;;;;;2.25;1.15;;;4.90;99.90;;;;;;5016418;28;20474;-72
2022/02/06 02:28:55;;;;;;;2.27;1.00;;;4.80;99.90;;;;;;5015042;28;20669;-72
2022/02/06 02:45:51;;;;;;;1.05;1.05;;;4.80;99.90;;;;;;5014943;28;20264;-72
2022/02/06 02:47:34;;;;;;;3.35;1.20;;;4.80;99.90;;;;;;5014106;28;20183;-74
2022/02/06 02:50:06;;;;;;;0.95;0.70;;;4.90;99.90;;;;;;5014683;28;20195;-73
2022/02/06 02:52:58;;;;;;;1.75;0.50;;;4.90;99.90;;;;;;5014310;28;20610;-73
2022/02/06 02:56:38;;;;;;;2.05;0.90;;;4.90;99.90;;;;;;5014669;28;20626;-73
2022/02/06 02:58:30;;;;;;;2.50;1.45;;;4.90;99.90;;;;;;5009924;28;20183;-72
2022/02/06 03:01:08;;;;;;;0.77;0.77;;;5.00;99.90;;;;;;5014904;28;20190;-72
2022/02/06 03:03:37;;;;;;;7.65;0.80;;;5.00;99.90;;;;;;5014712;28;20163;-72
2022/02/06 03:06:05;;;;;;;0.90;0.90;;;5.00;99.90;;;;;;5015028;28;20154;-73
2022/02/06 03:08:33;;;;;;;0.98;0.50;;;5.00;99.90;;;;;;5014378;28;20160;-72
2022/02/06 03:11:02;;;;;;;0.52;0.52;;;5.00;99.90;;;;;;5014723;28;20166;-73
2022/02/06 03:13:38;;;;;;;2.78;0.75;;;5.10;99.90;;;;;;5014685;28;20160;-72
2022/02/06 03:16:17;;;;;;;0.50;0.50;;;5.10;99.90;;;;;;5016395;28;20179;-72
2022/02/06 03:21:21;;;;;;;0.40;0.40;;;5.20;99.90;;;;;;5016932;28;20205;-74
2022/02/06 03:23:52;;;;;;;0.70;0.70;;;5.30;99.90;;;;;;5016874;28;20198;-72
2022/02/06 03:26:19;;;;;;;2.45;1.10;;;5.20;99.90;;;;;;5016331;28;20233;-72
2022/02/06 03:28:46;;;;;;;9.90;1.05;;;5.20;99.90;;;;;;5016947;28;20174;-73
2022/02/06 03:31:12;;;;;;;1.45;0.90;;;5.30;99.90;;;;;;5017901;28;20163;-74
2022/02/06 03:33:38;;;;;;;4.47;0.90;;;5.30;99.90;;;;;;5016459;28;20574;-73
2022/02/06 03:36:03;;;;;;;0.80;0.80;;;5.30;99.90;;;;;;5015291;28;20672;-73
2022/02/06 03:38:29;;;;;;;1.07;1.00;;;5.30;99.90;;;;;;5014617;28;20254;-73
2022/02/06 03:41:06;;;;;;;2.00;0.73;;;5.30;99.90;;;;;;5020964;28;20397;-72
2022/02/06 03:46:08;;;;;;;1.80;0.73;;;5.30;99.90;;;;;;4995792;28;20169;-72
2022/02/06 03:48:46;;;;;;;0.60;0.50;;;5.40;99.90;;;;;;4994399;28;20167;-74
2022/02/06 03:51:21;;;;;;;0.98;0.90;;;5.40;99.90;;;;;;4995464;28;20183;-73
2022/02/06 03:53:49;;;;;;;2.63;1.30;;;5.40;99.90;;;;;;4995091;28;20537;-73
2022/02/06 03:56:15;;;;;;;3.15;0.85;;;5.40;99.90;;;;;;4994836;28;20262;-74
2022/02/06 03:58:41;;;;;;;1.08;0.90;;;5.40;99.90;;;;;;4995633;28;20250;-71
2022/02/06 04:01:07;;;;;;;2.07;0.77;;;5.40;99.90;;;;;;4994785;28;20188;-73
2022/02/06 04:03:32;;;;;;;0.93;0.60;;;5.40;99.90;;;;;;4993993;28;20203;-74
2022/02/06 04:05:58;;;;;;;0.90;0.90;;;5.40;99.90;;;;;;4994200;28;20167;-74
2022/02/06 04:08:25;;;;;;;0.50;0.50;;;5.40;99.90;;;;;;4993810;28;20187;-73
2022/02/06 04:10:52;;;;;;;0.70;0.70;;;5.40;99.90;;;;;;4993969;28;20551;-73
2022/02/06 04:13:24;;;;;;;1.00;1.00;;;5.40;99.90;;;;;;4993999;28;20179;-72
2022/02/06 04:15:58;;;;;;;3.60;1.00;;;5.40;99.90;;;;;;4994128;28;20565;-73
2022/02/06 04:19:05;;;;;;;1.48;0.90;;;5.40;99.90;;;;;;4993619;28;20644;-72
2022/02/06 04:21:16;;;;;;;0.70;0.70;;;5.30;99.90;;;;;;4994620;28;20183;-74
2022/02/06 04:23:41;;;;;;;2.13;0.80;;;5.40;99.90;;;;;;4994000;28;20635;-73
2022/02/06 04:26:07;;;;;;;5.23;3.10;;;5.40;99.90;;;;;;4993841;28;20176;-74
2022/02/06 04:28:34;;;;;;;1.27;1.17;;;5.30;99.90;;;;;;4993477;28;20399;-73
2022/02/06 04:31:00;;;;;;;1.77;1.30;;;5.30;99.90;;;;;;4993835;28;20259;-73
2022/02/06 04:33:25;;;;;;;2.30;0.97;;;5.30;99.90;;;;;;4992726;28;20215;-73
2022/02/06 04:35:55;;;;;;;1.77;0.90;;;5.30;99.90;;;;;;5008798;28;20172;-72
2022/02/06 04:38:39;;;;;;;1.02;0.90;;;5.30;99.90;;;;;;4993605;28;20169;-73
2022/02/06 05:23:49;;;;;;;1.05;1.02;;;5.40;99.90;;;;;;5016311;28;20194;-74
2022/02/06 05:26:38;;;;;;;3.20;1.20;;;5.40;99.90;;;;;;5016737;28;20254;-73
2022/02/06 05:29:22;;;;;;;0.95;0.80;;;5.40;99.90;;;;;;5015884;28;20561;-72
2022/02/06 05:34:13;;;;;;;0.60;0.60;;;5.50;99.90;;;;;;5016294;28;20168;-73
2022/02/06 05:36:39;;;;;;;1.40;0.90;;;5.50;99.90;;;;;;5016566;28;20206;-73
2022/02/06 05:39:05;;;;;;;0.53;0.53;;;5.40;99.90;;;;;;5015976;28;20196;-73
2022/02/06 05:41:30;;;;;;;1.27;0.80;;;5.50;99.90;;;;;;5015994;28;20395;-74
2022/02/06 05:43:56;;;;;;;1.53;0.53;;;5.40;99.90;;;;;;5016153;28;20214;-73
2022/02/06 05:46:22;;;;;;;0.50;0.50;;;5.40;99.90;;;;;;5016159;28;20176;-72
2022/02/06 05:48:48;;;;;;;0.80;0.80;;;5.40;99.90;;;;;;5015678;28;20402;-73
2022/02/06 05:51:14;;;;;;;0.83;0.80;;;5.40;99.90;;;;;;5015959;28;20185;-71
2022/02/06 05:53:40;;;;;;;0.85;0.85;;;5.40;99.90;;;;;;5015791;28;20178;-74
2022/02/06 05:56:06;;;;;;;2.25;1.20;;;5.40;99.90;;;;;;5015818;28;20210;-73
2022/02/06 05:58:32;;;;;;;0.60;0.60;;;5.50;99.90;;;;;;5017676;28;20168;-71
2022/02/06 06:00:57;;;;;;;1.07;1.00;;;5.50;99.90;;;;;;5015848;28;20797;-72
2022/02/06 06:03:23;;;;;;;2.93;0.80;;;5.50;99.90;;;;;;5015956;28;20501;-73
2022/02/06 06:05:49;;;;;;;0.80;0.80;;;5.60;99.90;;;;;;5015975;28;20231;-74
2022/02/06 06:08:15;;;;;;;1.13;1.10;;;5.60;99.90;;;;;;5030403;28;20520;-74
2022/02/06 06:10:40;;;;;;;0.53;0.53;;;5.60;99.90;;;;;;5015664;28;20192;-73
2022/02/06 06:13:06;;;;;;;0.93;0.73;;;5.60;99.90;;;;;;5015442;28;20174;-74
2022/02/06 06:15:31;;;;;;;0.80;0.80;;;5.70;99.90;;;;;;5014266;28;20265;-74
2022/02/06 06:18:02;;;;;;;1.30;1.17;;;5.70;99.90;;;;;;5014982;28;20171;-73
2022/02/06 06:20:30;;;;;;;0.60;0.60;;;5.70;99.90;;;;;;5015312;28;20183;-74
2022/02/06 06:22:55;;;;;;;0.85;0.85;;;5.70;99.90;;;;;;5015388;28;20199;-74
2022/02/06 06:25:23;;;;;;;0.50;0.50;;;5.80;99.90;;;;;;5015139;28;20183;-74
2022/02/06 06:27:49;;;;;;;1.02;0.88;;;5.80;99.90;;;;;;5014963;28;20171;-73
2022/02/06 06:30:15;;;;;;;0.90;0.90;;;5.80;99.90;;;;;;5013973;28;20596;-73
2022/02/06 06:32:41;;;;;;;2.53;0.80;;;5.80;99.90;;;;;;5015078;28;20405;-74
2022/02/06 06:35:07;;;;;;;4.30;0.87;;;5.80;99.90;;;;;;5015170;28;20252;-74
2022/02/06 06:37:40;;;;;;;0.60;0.60;;;5.90;99.90;;;;;;5014940;28;20169;-74
2022/02/06 06:40:07;;;;;;;0.85;0.85;;;5.90;99.90;;;;;;5014933;28;20238;-73
2022/02/06 06:42:32;;;;;;;2.85;0.88;;;5.90;99.90;;;;;;5014625;28;20200;-74
2022/02/06 06:44:58;;;;;;;2.20;0.77;;;5.90;99.90;;;;;;5014931;28;20189;-74
2022/02/06 06:47:23;;;;;;;2.17;1.07;;;5.90;99.90;;;;;;5015013;28;20623;-73
2022/02/06 06:49:49;;;;;;;0.80;0.80;;;5.90;99.90;;;;;;5014375;28;20197;-72
2022/02/06 06:52:15;;;;;;;0.60;0.60;;;5.90;99.90;;;;;;5014668;28;20192;-73
2022/02/06 06:54:45;;;;;;;1.00;0.87;;;5.90;99.90;;;;;;5014801;28;20635;-74
2022/02/06 06:57:19;;;;;;;1.02;0.95;;;5.90;99.90;;;;;;5014748;28;20186;-73
2022/02/06 07:00:19;;;;;;;1.67;0.82;;;5.90;99.90;;;;;;5014129;28;20273;-73
2022/02/06 07:02:33;;;;;;;2.08;0.82;;;5.90;99.90;;;;;;5014501;28;20203;-73
2022/02/06 07:05:03;;;;;;;4.78;1.27;;;5.90;99.90;;;;;;5014476;28;20171;-73
2022/02/06 07:07:30;;;;;;;0.70;0.70;;;5.90;99.90;;;;;;5014290;28;20241;-73
2022/02/06 07:09:56;;;;;;;0.63;0.63;;;5.90;99.90;;;;;;5014303;28;20183;-73
2022/02/06 07:12:22;;;;;;;0.70;0.70;;;5.90;99.90;;;;;;5014764;28;20174;-73
2022/02/06 07:14:49;;;;;;;0.75;0.75;;;5.90;99.90;;;;;;5014396;28;20771;-74
2022/02/06 07:17:16;;;;;;;3.10;1.48;;;5.90;99.90;;;;;;5014535;28;20173;-73
2022/02/06 07:19:43;;;;;;;0.73;0.73;;;6.00;99.90;;;;;;5013769;28;20274;-73
2022/02/06 07:22:13;;;;;;;2.85;1.80;;;6.00;99.90;;;;;;5014113;28;20199;-74
2022/02/06 07:24:39;;;;;;;5.75;1.77;;;6.00;99.90;;;;;;5014240;28;20169;-74
2022/02/06 07:27:17;;;;;;;2.15;0.60;;;6.10;99.90;;;;;;5014460;28;20163;-72
2022/02/06 07:29:43;;;;;;;1.40;1.40;;;6.10;99.90;;;;;;5014056;28;20191;-74
2022/02/06 07:32:09;;;;;;;0.40;0.40;;;6.10;99.90;;;;;;5014628;28;20181;-72
2022/02/06 07:34:35;;;;;;;0.50;0.50;;;6.20;99.90;;;;;;5014746;28;20535;-72
2022/02/06 07:37:00;;;;;;;0.60;0.60;;;6.20;99.90;;;;;;5014363;28;20420;-74
2022/02/06 07:39:26;;;;;;;4.70;1.50;;;6.20;99.90;;;;;;5014186;28;20254;-74
2022/02/06 07:41:52;;;;;;;1.13;1.03;;;6.20;99.90;;;;;;5014147;28;20292;-73
2022/02/06 07:44:18;;;;;;;1.23;0.77;;;6.30;99.90;;;;;;5014187;28;20197;-74
2022/02/06 07:46:46;;;;;;;1.67;1.37;;;6.30;99.90;;;;;;5014048;28;20180;-74
2022/02/06 07:49:14;;;;;;;2.05;0.70;;;6.40;99.90;;;;;;5013318;28;20186;-73
2022/02/06 07:51:39;;;;;;;1.38;0.70;;;6.40;99.90;;;;;;5013683;28;20236;-73
2022/02/06 07:54:06;;;;;;;1.90;0.80;;;6.40;99.90;;;;;;5014021;28;20178;-74
2022/02/06 07:56:31;;;;;;;3.60;0.90;;;6.50;99.90;;;;;;5013544;28;20181;-74
2022/02/06 07:58:58;;;;;;;1.07;0.90;;;6.60;99.90;;;;;;5013424;28;20201;-73
2022/02/06 08:01:24;;;;;;;0.70;0.70;;;6.60;99.90;;;;;;5014028;28;20221;-73
2022/02/06 08:03:50;;;;;;;1.60;1.17;;;6.70;99.90;;;;;;5013602;28;20644;-73
2022/02/06 08:06:16;;;;;;;1.03;0.80;;;6.70;99.90;;;;;;5013632;28;20219;-74
2022/02/06 08:08:42;;;;;;;1.47;0.97;;;6.80;99.90;;;;;;5013172;28;20172;-73
2022/02/06 08:11:12;;;;;;;3.63;0.85;;;6.80;99.90;;;;;;5012157;28;20228;-74
2022/02/06 08:13:41;;;;;;;1.08;0.90;;;6.80;99.90;;;;;;5013566;28;20172;-72
2022/02/06 08:16:07;;;;;;;1.85;1.25;;;6.90;99.90;;;;;;5013279;28;20579;-73
2022/02/06 08:18:36;;;;;;;0.70;0.70;;;6.90;99.90;;;;;;5011843;28;20209;-74
2022/02/06 08:21:03;;;;;;;0.68;0.68;;;6.90;99.90;;;;;;5013211;28;20196;-74
2022/02/06 08:23:30;;;;;;;0.40;0.40;;;7.00;99.90;;;;;;5013390;28;20300;-72
2022/02/06 08:25:56;;;;;;;1.10;1.00;;;7.00;99.90;;;;;;5013398;28;20167;-74
2022/02/06 08:28:22;;;;;;;3.03;0.80;;;7.10;99.90;;;;;;5013002;28;20170;-73
2022/02/06 08:30:48;;;;;;;1.23;0.83;;;7.10;99.90;;;;;;5013655;28;20289;-74
2022/02/06 08:33:14;;;;;;;2.67;1.07;;;7.10;99.90;;;;;;5013520;28;20192;-74
2022/02/06 08:35:40;;;;;;;0.60;0.60;;;7.10;99.90;;;;;;5013624;28;20416;-73
2022/02/06 08:38:06;;;;;;;0.68;0.68;;;7.10;99.90;;;;;;5028091;28;20428;-75
2022/02/06 08:40:31;;;;;;;2.73;0.90;;;7.10;99.90;;;;;;5013511;28;20198;-74
2022/02/06 08:42:57;;;;;;;0.93;0.90;;;7.20;99.90;;;;;;5013318;28;20614;-75
2022/02/06 08:45:25;;;;;;;2.15;1.95;;;7.20;99.90;;;;;;5013174;28;20529;-74
2022/02/06 08:47:51;;;;;;;0.77;0.77;;;7.20;99.90;;;;;;5012983;28;20213;-73
2022/02/06 08:50:17;;;;;;;1.13;0.60;;;7.30;99.90;;;;;;5015550;28;20194;-74
2022/02/06 08:52:43;;;;;;;3.85;1.30;;;7.30;99.90;;;;;;5015827;28;20655;-74
2022/02/06 08:55:11;;;;;;;0.80;0.70;;;7.40;99.90;;;;;;5017186;28;20178;-73
2022/02/06 08:57:43;;;;;;;0.93;0.93;;;7.40;99.90;;;;;;5016407;28;20174;-74
2022/02/06 09:00:10;;;;;;;3.13;0.88;;;7.60;99.90;;;;;;5016828;28;20563;-73
2022/02/06 09:02:35;;;;;;;0.63;0.63;;;7.60;99.90;;;;;;5015156;28;20209;-74
2022/02/06 09:05:03;;;;;;;0.90;0.80;;;7.70;99.90;;;;;;5016920;28;20173;-74
2022/02/06 09:07:29;;;;;;;1.17;0.70;;;7.60;99.90;;;;;;5016372;28;20169;-75
2022/02/06 09:09:59;;;;;;;1.30;0.50;;;7.70;99.90;;;;;;5016465;28;20182;-73
2022/02/06 09:12:26;;;;;;;0.93;0.93;;;7.70;99.90;;;;;;5016537;28;20253;-75
2022/02/06 09:14:52;;;;;;;0.95;0.95;;;7.80;99.90;;;;;;5016557;28;20174;-74
2022/02/06 09:17:19;;;;;;;0.60;0.57;;;7.70;99.90;;;;;;5016362;28;20178;-75
2022/02/06 09:19:45;;;;;;;5.35;0.98;;;7.80;99.90;;;;;;5016018;28;20231;-74
2022/02/06 09:22:13;;;;;;;1.23;0.60;;;7.80;99.90;;;;;;5016207;28;20225;-74
2022/02/06 09:24:39;;;;;;;0.60;0.60;;;7.80;99.90;;;;;;5016427;28;20471;-74
2022/02/06 09:27:09;;;;;;;4.65;2.80;;;7.80;99.90;;;;;;5016100;28;20257;-73
2022/02/06 09:29:37;;;;;;;1.40;0.50;;;7.80;99.90;;;;;;5014689;28;20198;-74
2022/02/06 09:37:09;;;;;;;0.95;0.95;;;7.80;99.90;;;;;;5016281;28;20178;-75
2022/02/06 09:39:39;;;;;;;0.57;0.57;;;7.80;99.90;;;;;;5015739;28;20197;-73
2022/02/06 09:42:06;;;;;;;1.40;1.30;;;7.80;99.90;;;;;;5015864;28;20198;-75
2022/02/06 09:44:33;;;;;;;1.00;0.60;;;7.90;99.90;;;;;;5016142;28;20167;-75
2022/02/06 09:46:58;;;;;;;0.57;0.50;;;7.90;99.90;;;;;;5015971;28;20253;-73
2022/02/06 09:49:27;;;;;;;0.87;0.50;;;8.00;99.90;;;;;;5015367;28;20321;-74
2022/02/06 09:51:53;;;;;;;0.75;0.75;;;8.00;99.90;;;;;;5015518;28;20796;-74
2022/02/06 09:54:22;;;;;;;0.85;0.73;;;8.00;99.90;;;;;;5015813;28;20268;-74
2022/02/06 09:56:51;;;;;;;0.82;0.82;;;8.00;99.90;;;;;;5016017;28;20529;-74
2022/02/06 09:59:20;;;;;;;0.60;0.60;;;8.10;99.90;;;;;;5015424;28;20700;-74
2022/02/06 10:01:56;;;;;;;2.35;1.17;;;8.10;99.90;;;;;;5014857;28;20199;-73
2022/02/06 10:04:27;;;;;;;2.70;1.15;;;8.20;99.90;;;;;;5015585;28;20169;-75
2022/02/06 10:07:05;;;;;;;0.68;0.50;;;8.30;99.90;;;;;;5015816;28;20159;-74
2022/02/06 10:10:03;;;;;;;1.60;1.13;;;8.40;99.90;;;;;;5015322;28;20183;-73
2022/02/06 10:12:35;;;;;;;0.50;0.50;;;8.50;99.90;;;;;;5014260;28;20276;-74
2022/02/06 10:15:01;;;;;;;0.57;0.57;;;8.60;99.90;;;;;;5014168;28;20179;-75
2022/02/06 10:17:28;;;;;;;0.90;0.90;;;8.60;99.90;;;;;;5015086;28;20174;-76
2022/02/06 10:19:56;;;;;;;0.98;0.80;;;8.70;99.90;;;;;;5015194;28;20194;-73
2022/02/06 10:22:48;;;;;;;2.42;0.80;;;8.70;99.90;;;;;;5015325;28;20225;-73
2022/02/06 10:25:13;;;;;;;1.02;0.70;;;8.70;99.90;;;;;;5014023;28;20170;-74
2022/02/06 10:28:02;;;;;;;5.17;1.27;;;8.80;99.90;;;;;;5014782;28;20174;-73
2022/02/06 10:30:42;;;;;;;2.15;0.77;;;8.80;99.90;;;;;;5014937;28;20187;-75
2022/02/06 10:33:12;;;;;;;0.63;0.63;;;8.80;99.90;;;;;;5013577;28;20170;-74
2022/02/06 10:35:40;;;;;;;0.60;0.60;;;8.70;99.90;;;;;;5015099;28;20688;-74
2022/02/06 10:38:22;;;;;;;4.40;0.60;;;8.70;99.90;;;;;;5013549;28;20197;-74
2022/02/06 10:41:11;;;;;;;0.60;0.60;;;8.70;99.90;;;;;;5015290;28;20596;-75
2022/02/06 10:43:59;;;;;;;0.60;0.60;;;8.80;99.90;;;;;;4996454;28;20207;-75
2022/02/06 10:46:29;;;;;;;1.05;0.88;;;8.90;99.90;;;;;;4995588;28;20626;-75
2022/02/06 10:49:00;;;;;;;2.25;0.85;;;9.00;99.90;;;;;;4996004;28;20289;-75
2022/02/06 10:51:44;;;;;;;0.73;0.73;;;9.00;99.90;;;;;;4995191;28;20186;-75
2022/02/06 10:54:18;;;;;;;0.75;0.60;;;9.00;99.90;;;;;;4995036;28;20178;-74
2022/02/06 10:57:04;;;;;;;0.50;0.50;;;9.00;99.90;;;;;;5010165;28;20170;-74
2022/02/06 10:59:48;;;;;;;0.85;0.85;;;9.10;99.90;;;;;;4994162;28;20214;-74
2022/02/06 11:02:44;;;;;;;7.15;1.35;;;9.10;99.90;;;;;;4994815;28;20671;-74
2022/02/06 11:05:18;;;;;;;2.60;1.00;;;9.30;99.90;;;;;;4994806;28;20175;-74
2022/02/06 11:07:58;;;;;;;0.40;0.40;;;9.30;99.90;;;;;;4994473;28;20168;-76
2022/02/06 11:10:26;;;;;;;1.52;0.82;;;9.40;99.90;;;;;;4994646;28;20190;-75
2022/02/06 11:12:54;;;;;;;1.80;0.80;;;9.40;99.90;;;;;;4994144;28;20230;-74
2022/02/06 11:15:31;;;;;;;0.70;0.70;;;9.40;99.90;;;;;;4993485;28;20207;-75
2022/02/06 11:18:19;;;;;;;1.40;0.80;;;9.40;99.90;;;;;;4994859;28;20167;-72
2022/02/06 11:21:09;;;;;;;1.48;0.88;;;9.30;99.90;;;;;;4994285;28;20661;-73
2022/02/06 11:23:55;;;;;;;1.15;0.82;;;9.20;99.90;;;;;;4994655;28;20206;-75
2022/02/06 11:26:26;;;;;;;0.88;0.55;;;9.20;99.90;;;;;;4995071;28;20582;-75
2022/02/06 11:28:54;;;;;;;0.55;0.55;;;9.20;99.90;;;;;;4994191;28;20521;-74
2022/02/06 11:31:20;;;;;;;1.15;0.80;;;9.20;99.90;;;;;;4994398;28;20559;-73
2022/02/06 11:33:47;;;;;;;1.27;0.77;;;9.20;99.90;;;;;;4994550;28;20168;-75
2022/02/06 11:36:17;;;;;;;1.40;1.30;;;9.20;99.90;;;;;;4992740;28;20544;-75
2022/02/06 11:44:49;;;;;;;1.80;0.68;;;9.10;99.90;;;;;;5013569;28;20221;-74
2022/02/06 11:47:28;;;;;;;0.80;0.63;;;9.00;99.90;;;;;;5013837;28;20522;-74
2022/02/06 11:49:57;;;;;;;0.90;0.90;;;9.00;99.90;;;;;;5013405;28;20182;-74
2022/02/06 11:52:56;;;;;;;1.13;0.80;;;9.00;99.90;;;;;;5013557;28;20278;-74
2022/02/06 11:55:39;;;;;;;1.45;0.98;;;8.90;99.90;;;;;;5013482;28;20182;-74
2022/02/06 11:58:26;;;;;;;0.75;0.60;;;8.90;99.90;;;;;;5013501;28;20617;-73
2022/02/06 12:01:06;;;;;;;0.73;0.73;;;8.90;99.90;;;;;;5012272;28;20190;-76
2022/02/06 12:03:56;;;;;;;9.88;4.80;;;8.90;99.90;;;;;;5013601;28;20194;-74
2022/02/06 12:06:49;;;;;;;1.50;1.40;;;8.90;99.90;;;;;;5013542;28;20177;-73
2022/02/06 12:09:18;;;;;;;1.48;1.05;;;8.90;99.90;;;;;;5012701;28;20203;-76
2022/02/06 12:12:05;;;;;;;1.50;1.40;;;9.00;99.90;;;;;;5013848;28;20213;-74
2022/02/06 12:14:38;;;;;;;0.95;0.68;;;9.00;99.90;;;;;;5013536;28;20514;-75
2022/02/06 12:19:43;;;;;;;0.70;0.70;;;9.10;99.90;;;;;;5013003;28;20236;-75
2022/02/06 12:22:27;;;;;;;0.90;0.90;;;9.10;99.90;;;;;;5013519;28;20552;-74
2022/02/06 12:25:13;;;;;;;4.63;1.02;;;9.20;99.90;;;;;;5017264;28;20225;-75
2022/02/06 12:27:39;;;;;;;1.58;1.10;;;9.20;99.90;;;;;;5015396;28;20177;-74
2022/02/06 12:30:07;;;;;;;0.60;0.60;;;9.30;99.90;;;;;;5017571;28;20186;-75
2022/02/06 12:32:36;;;;;;;0.80;0.80;;;9.30;99.90;;;;;;5017453;28;20177;-74
2022/02/06 12:37:54;;;;;;;0.60;0.55;;;9.30;99.90;;;;;;5017184;28;20593;-74
2022/02/06 12:40:26;;;;;;;0.40;0.40;;;9.30;99.90;;;;;;5018138;28;20191;-75
2022/02/06 12:42:59;;;;;;;0.55;0.40;;;9.30;99.90;;;;;;5017239;28;20237;-74
2022/02/06 12:45:27;;;;;;;1.20;0.50;;;9.30;99.90;;;;;;5017801;28;20568;-76
2022/02/06 12:48:07;;;;;;;0.30;0.30;;;9.30;99.90;;;;;;5016720;28;20262;-75
2022/02/06 12:50:37;;;;;;;0.65;0.65;;;9.20;99.90;;;;;;5015669;28;20206;-74
2022/02/06 12:53:05;;;;;;;0.40;0.40;;;9.30;99.90;;;;;;5017075;28;20193;-75
2022/02/06 12:55:33;;;;;;;0.50;0.50;;;9.20;99.90;;;;;;5017177;28;20162;-74
2022/02/06 12:58:00;;;;;;;1.13;1.13;;;9.30;99.90;;;;;;5017032;28;20698;-75
2022/02/06 13:00:31;;;;;;;0.40;0.40;;;9.30;99.90;;;;;;5017277;28;20530;-74
2022/02/06 13:03:16;;;;;;;2.15;0.85;;;9.30;99.90;;;;;;5017460;28;20190;-76
2022/02/06 13:05:56;;;;;;;0.30;0.30;;;9.30;99.90;;;;;;5017541;28;20257;-74
2022/02/06 13:08:22;;;;;;;2.25;0.68;;;9.30;99.90;;;;;;5016932;28;20159;-76
2022/02/06 13:11:19;;;;;;;0.43;0.43;;;9.30;99.90;;;;;;5017470;28;20242;-76
2022/02/06 13:14:13;;;;;;;4.20;1.33;;;9.40;99.90;;;;;;5016795;28;20179;-75
2022/02/06 13:28:06;;;;;;;0.85;0.70;;;9.30;99.90;;;;;;5016438;28;20671;-77
2022/02/06 13:30:50;;;;;;;0.90;0.80;;;9.30;99.90;;;;;;5016361;28;20683;-75
2022/02/06 13:33:59;;;;;;;2.13;1.30;;;9.20;99.90;;;;;;5017400;28;20242;-74
2022/02/06 13:39:03;;;;;;;0.73;0.50;;;9.20;99.90;;;;;;5015328;28;20281;-76
2022/02/06 13:41:32;;;;;;;0.57;0.57;;;9.10;99.90;;;;;;5016097;28;20166;-76
2022/02/06 13:44:04;;;;;;;0.80;0.55;;;9.10;99.90;;;;;;5016118;28;20171;-75
2022/02/06 13:46:34;;;;;;;0.60;0.57;;;9.00;99.90;;;;;;5014887;28;20190;-74
2022/02/06 13:49:01;;;;;;;0.60;0.60;;;9.00;99.90;;;;;;5015890;28;20214;-77
2022/02/06 13:51:34;;;;;;;0.50;0.50;;;9.00;99.90;;;;;;5016205;28;20193;-75
2022/02/06 13:54:03;;;;;;;0.32;0.32;;;9.00;99.90;;;;;;5016118;28;20163;-75
2022/02/06 13:56:32;;;;;;;2.90;1.80;;;9.00;99.90;;;;;;5016068;28;20589;-73
2022/02/06 13:59:02;;;;;;;1.17;0.88;;;8.90;99.90;;;;;;5014625;28;20209;-75
2022/02/06 14:01:39;;;;;;;0.50;0.50;;;8.90;99.90;;;;;;5016363;28;20576;-74
2022/02/06 14:04:18;;;;;;;0.40;0.40;;;8.70;99.90;;;;;;5016189;28;20561;-76
2022/02/06 14:06:51;;;;;;;0.70;0.70;;;8.70;99.90;;;;;;5014797;28;20198;-74
2022/02/06 14:09:45;;;;;;;1.13;0.82;;;8.60;99.90;;;;;;5014320;28;20277;-76
2022/02/06 14:12:16;;;;;;;1.50;1.00;;;8.50;99.90;;;;;;5016043;28;20174;-74
2022/02/06 14:14:51;;;;;;;0.95;0.80;;;8.40;99.90;;;;;;5015736;28;20179;-73
2022/02/06 14:17:28;;;;;;;2.80;0.50;;;8.40;99.90;;;;;;5015417;28;20182;-73
2022/02/06 14:19:57;;;;;;;0.80;0.80;;;8.40;99.90;;;;;;5015306;28;20198;-75
2022/02/06 14:22:35;;;;;;;1.40;0.70;;;8.30;99.90;;;;;;5015268;28;20182;-73
2022/02/06 14:25:04;;;;;;;0.70;0.70;;;8.20;99.90;;;;;;5015628;28;20177;-75
2022/02/06 14:27:39;;;;;;;0.45;0.45;;;8.20;99.90;;;;;;5030402;28;20171;-75
2022/02/06 14:30:08;;;;;;;0.52;0.50;;;8.10;99.90;;;;;;5015323;28;20200;-75
2022/02/06 14:32:35;;;;;;;0.60;0.60;;;8.10;99.90;;;;;;5015277;28;20171;-77
2022/02/06 14:35:08;;;;;;;0.43;0.43;;;8.00;99.90;;;;;;5015543;28;20178;-75
2022/02/06 14:37:51;;;;;;;1.05;0.43;;;8.00;99.90;;;;;;5015298;28;20532;-75
2022/02/06 14:40:43;;;;;;;0.47;0.47;;;7.90;99.90;;;;;;5015027;28;20591;-75
2022/02/06 14:43:12;;;;;;;0.57;0.55;;;7.90;99.90;;;;;;5015878;28;20229;-76
2022/02/06 14:45:48;;;;;;;0.40;0.40;;;7.80;99.90;;;;;;5015134;28;20248;-73
2022/02/06 14:48:14;;;;;;;0.43;0.43;;;7.80;99.90;;;;;;5014552;28;20564;-75
2022/02/06 14:50:47;;;;;;;1.05;0.95;;;7.80;99.90;;;;;;5015047;28;20213;-74
2022/02/06 14:53:14;;;;;;;0.40;0.40;;;7.70;99.90;;;;;;5014976;28;20177;-73
2022/02/06 14:55:42;;;;;;;0.30;0.30;;;7.70;99.90;;;;;;5014833;28;20212;-74
2022/02/06 14:58:08;;;;;;;0.40;0.40;;;7.70;99.90;;;;;;5013317;28;20175;-72
2022/02/06 15:00:35;;;;;;;0.40;0.40;;;7.70;99.90;;;;;;5014586;28;20297;-74
2022/02/06 15:03:01;;;;;;;0.50;0.50;;;7.60;99.90;;;;;;5013657;28;20300;-73
2022/02/06 15:05:28;;;;;;;0.90;0.40;;;7.60;99.90;;;;;;5014933;28;20171;-73
2022/02/06 15:07:54;;;;;;;0.40;0.40;;;7.60;99.90;;;;;;5013869;28;20531;-75
2022/02/06 15:10:20;;;;;;;0.60;0.50;;;7.60;99.90;;;;;;5014268;28;20222;-74
2022/02/06 15:12:45;;;;;;;0.50;0.50;;;7.60;99.90;;;;;;5014144;28;20264;-72
2022/02/06 15:15:14;;;;;;;0.43;0.40;;;7.50;99.90;;;;;;5014555;28;20417;-76
2022/02/06 15:17:39;;;;;;;0.60;0.60;;;7.50;99.90;;;;;;5014025;28;20438;-75
2022/02/06 15:20:06;;;;;;;0.30;0.30;;;7.40;99.90;;;;;;5014159;28;20234;-75
2022/02/06 15:22:32;;;;;;;0.30;0.30;;;7.40;99.90;;;;;;5013965;28;20292;-75
2022/02/06 15:24:57;;;;;;;0.40;0.40;;;7.40;99.90;;;;;;5014127;28;20220;-74
2022/02/06 15:27:23;;;;;;;0.50;0.50;;;7.30;99.90;;;;;;5013908;28;20265;-73
2022/02/06 15:29:48;;;;;;;0.80;0.40;;;7.30;99.90;;;;;;5013543;28;20190;-73
2022/02/06 15:32:17;;;;;;;0.30;0.30;;;7.30;99.90;;;;;;5014344;28;20174;-75
2022/02/06 15:34:43;;;;;;;0.40;0.40;;;7.20;99.90;;;;;;5014530;28;20201;-74
2022/02/06 15:37:09;;;;;;;0.40;0.40;;;7.20;99.90;;;;;;5014256;28;20590;-75
2022/02/06 15:39:38;;;;;;;0.77;0.57;;;7.10;99.90;;;;;;5013352;28;20272;-75
2022/02/06 15:42:08;;;;;;;1.95;0.80;;;7.10;99.90;;;;;;5012255;28;20247;-76
2022/02/06 15:44:34;;;;;;;1.05;1.05;;;7.00;99.90;;;;;;5013730;28;20280;-75
2022/02/06 15:47:00;;;;;;;0.87;0.80;;;7.00;99.90;;;;;;5013710;28;20177;-75